sensor_id;sensor_type;location;lat;lon;timestamp;P1;durP1;ratioP1;P2;durP2;ratioP2
19519;SDS011;9904;52.246;20.898;2023-07-24T00:00:52;9.10;;;5.00;;
19519;SDS011;9904;52.246;20.898;2023-07-24T00:03:18;11.83;;;4.90;;
19519;SDS011;9904;52.246;20.898;2023-07-24T00:05:45;10.63;;;4.80;;
19519;SDS011;9904;52.246;20.898;2023-07-24T00:08:12;13.13;;;5.30;;
19519;SDS011;9904;52.246;20.898;2023-07-24T00:10:39;10.83;;;5.20;;
19519;SDS011;9904;52.246;20.898;2023-07-24T00:13:05;9.63;;;4.77;;
19519;SDS011;9904;52.246;20.898;2023-07-24T00:15:34;11.47;;;4.90;;
19519;SDS011;9904;52.246;20.898;2023-07-24T00:18:00;9.07;;;5.30;;
19519;SDS011;9904;52.246;20.898;2023-07-24T00:20:27;11.93;;;5.23;;
19519;SDS011;9904;52.246;20.898;2023-07-24T00:22:53;8.70;;;4.30;;
19519;SDS011;9904;52.246;20.898;2023-07-24T00:25:20;10.03;;;4.77;;
19519;SDS011;9904;52.246;20.898;2023-07-24T00:27:46;9.13;;;4.60;;
19519;SDS011;9904;52.246;20.898;2023-07-24T00:30:13;11.00;;;4.80;;
19519;SDS011;9904;52.246;20.898;2023-07-24T00:32:39;9.57;;;5.03;;
19519;SDS011;9904;52.246;20.898;2023-07-24T00:35:06;8.80;;;4.77;;
19519;SDS011;9904;52.246;20.898;2023-07-24T00:37:33;8.50;;;4.90;;
19519;SDS011;9904;52.246;20.898;2023-07-24T00:40:00;11.27;;;5.30;;
19519;SDS011;9904;52.246;20.898;2023-07-24T00:42:28;14.20;;;5.70;;
19519;SDS011;9904;52.246;20.898;2023-07-24T00:44:54;9.23;;;4.93;;
19519;SDS011;9904;52.246;20.898;2023-07-24T00:47:21;9.37;;;4.97;;
19519;SDS011;9904;52.246;20.898;2023-07-24T00:49:48;8.83;;;4.70;;
19519;SDS011;9904;52.246;20.898;2023-07-24T00:52:14;12.30;;;4.90;;
19519;SDS011;9904;52.246;20.898;2023-07-24T00:54:41;10.37;;;5.43;;
19519;SDS011;9904;52.246;20.898;2023-07-24T00:57:10;12.10;;;4.60;;
19519;SDS011;9904;52.246;20.898;2023-07-24T00:59:36;12.63;;;5.07;;
19519;SDS011;9904;52.246;20.898;2023-07-24T01:02:03;10.47;;;4.87;;
19519;SDS011;9904;52.246;20.898;2023-07-24T01:04:30;10.90;;;5.07;;
19519;SDS011;9904;52.246;20.898;2023-07-24T01:06:56;12.77;;;4.73;;
19519;SDS011;9904;52.246;20.898;2023-07-24T01:09:24;10.60;;;4.83;;
19519;SDS011;9904;52.246;20.898;2023-07-24T01:11:51;12.70;;;4.97;;
19519;SDS011;9904;52.246;20.898;2023-07-24T01:14:49;10.07;;;4.73;;
19519;SDS011;9904;52.246;20.898;2023-07-24T01:17:19;8.30;;;5.00;;
19519;SDS011;9904;52.246;20.898;2023-07-24T01:19:49;11.23;;;4.87;;
19519;SDS011;9904;52.246;20.898;2023-07-24T01:27:31;8.67;;;4.30;;
19519;SDS011;9904;52.246;20.898;2023-07-24T01:29:58;9.50;;;4.70;;
19519;SDS011;9904;52.246;20.898;2023-07-24T01:32:25;12.90;;;6.33;;
19519;SDS011;9904;52.246;20.898;2023-07-24T01:34:52;10.93;;;4.60;;
19519;SDS011;9904;52.246;20.898;2023-07-24T01:37:20;8.20;;;5.20;;
19519;SDS011;9904;52.246;20.898;2023-07-24T01:39:47;10.03;;;5.07;;
19519;SDS011;9904;52.246;20.898;2023-07-24T01:42:14;16.37;;;4.57;;
19519;SDS011;9904;52.246;20.898;2023-07-24T01:44:40;9.23;;;4.20;;
19519;SDS011;9904;52.246;20.898;2023-07-24T01:47:07;8.00;;;4.00;;
19519;SDS011;9904;52.246;20.898;2023-07-24T01:49:33;14.60;;;4.43;;
19519;SDS011;9904;52.246;20.898;2023-07-24T01:52:00;9.33;;;4.77;;
19519;SDS011;9904;52.246;20.898;2023-07-24T01:54:27;7.87;;;3.80;;
19519;SDS011;9904;52.246;20.898;2023-07-24T01:56:53;10.47;;;4.70;;
19519;SDS011;9904;52.246;20.898;2023-07-24T01:59:20;10.50;;;4.17;;
19519;SDS011;9904;52.246;20.898;2023-07-24T02:01:46;11.33;;;4.00;;
19519;SDS011;9904;52.246;20.898;2023-07-24T02:04:13;12.83;;;3.93;;
19519;SDS011;9904;52.246;20.898;2023-07-24T02:06:39;8.10;;;3.70;;
19519;SDS011;9904;52.246;20.898;2023-07-24T02:09:06;9.97;;;3.93;;
19519;SDS011;9904;52.246;20.898;2023-07-24T02:11:33;6.80;;;3.80;;
19519;SDS011;9904;52.246;20.898;2023-07-24T02:13:59;16.70;;;4.20;;
19519;SDS011;9904;52.246;20.898;2023-07-24T02:16:26;8.83;;;4.10;;
19519;SDS011;9904;52.246;20.898;2023-07-24T02:18:53;12.63;;;4.60;;
19519;SDS011;9904;52.246;20.898;2023-07-24T02:21:20;9.53;;;4.37;;
19519;SDS011;9904;52.246;20.898;2023-07-24T02:23:47;7.20;;;4.47;;
19519;SDS011;9904;52.246;20.898;2023-07-24T02:26:13;11.67;;;4.67;;
19519;SDS011;9904;52.246;20.898;2023-07-24T02:28:40;9.07;;;4.10;;
19519;SDS011;9904;52.246;20.898;2023-07-24T02:31:06;9.03;;;3.50;;
19519;SDS011;9904;52.246;20.898;2023-07-24T02:33:33;7.17;;;3.50;;
19519;SDS011;9904;52.246;20.898;2023-07-24T02:36:00;7.60;;;3.93;;
19519;SDS011;9904;52.246;20.898;2023-07-24T02:38:27;8.30;;;3.97;;
19519;SDS011;9904;52.246;20.898;2023-07-24T02:40:53;6.87;;;3.73;;
19519;SDS011;9904;52.246;20.898;2023-07-24T02:43:20;7.13;;;3.73;;
19519;SDS011;9904;52.246;20.898;2023-07-24T02:45:46;6.90;;;3.67;;
19519;SDS011;9904;52.246;20.898;2023-07-24T02:48:13;6.73;;;3.50;;
19519;SDS011;9904;52.246;20.898;2023-07-24T02:50:39;7.47;;;3.83;;
19519;SDS011;9904;52.246;20.898;2023-07-24T02:53:06;8.13;;;3.77;;
19519;SDS011;9904;52.246;20.898;2023-07-24T02:55:33;12.13;;;3.87;;
19519;SDS011;9904;52.246;20.898;2023-07-24T02:57:59;6.43;;;3.63;;
19519;SDS011;9904;52.246;20.898;2023-07-24T03:00:26;6.97;;;3.70;;
19519;SDS011;9904;52.246;20.898;2023-07-24T03:02:53;5.13;;;3.33;;
19519;SDS011;9904;52.246;20.898;2023-07-24T03:05:20;12.47;;;3.40;;
19519;SDS011;9904;52.246;20.898;2023-07-24T03:07:47;7.47;;;3.77;;
19519;SDS011;9904;52.246;20.898;2023-07-24T03:10:14;7.27;;;3.33;;
19519;SDS011;9904;52.246;20.898;2023-07-24T03:12:41;9.70;;;3.60;;
19519;SDS011;9904;52.246;20.898;2023-07-24T03:15:07;9.23;;;3.63;;
19519;SDS011;9904;52.246;20.898;2023-07-24T03:17:35;12.17;;;4.00;;
19519;SDS011;9904;52.246;20.898;2023-07-24T03:20:08;7.47;;;3.70;;
19519;SDS011;9904;52.246;20.898;2023-07-24T03:22:36;6.70;;;3.33;;
19519;SDS011;9904;52.246;20.898;2023-07-24T03:25:02;7.30;;;3.57;;
19519;SDS011;9904;52.246;20.898;2023-07-24T03:27:29;6.10;;;3.37;;
19519;SDS011;9904;52.246;20.898;2023-07-24T03:29:56;10.63;;;3.20;;
19519;SDS011;9904;52.246;20.898;2023-07-24T03:32:22;6.87;;;3.40;;
19519;SDS011;9904;52.246;20.898;2023-07-24T03:34:49;8.00;;;3.60;;
19519;SDS011;9904;52.246;20.898;2023-07-24T03:37:15;6.77;;;3.53;;
19519;SDS011;9904;52.246;20.898;2023-07-24T03:39:42;5.40;;;3.70;;
19519;SDS011;9904;52.246;20.898;2023-07-24T03:42:09;7.20;;;3.27;;
19519;SDS011;9904;52.246;20.898;2023-07-24T03:44:41;4.87;;;3.30;;
19519;SDS011;9904;52.246;20.898;2023-07-24T03:47:08;8.30;;;3.40;;
19519;SDS011;9904;52.246;20.898;2023-07-24T03:49:34;7.50;;;3.27;;
19519;SDS011;9904;52.246;20.898;2023-07-24T03:52:01;8.00;;;3.40;;
19519;SDS011;9904;52.246;20.898;2023-07-24T03:54:28;8.30;;;3.20;;
19519;SDS011;9904;52.246;20.898;2023-07-24T03:56:54;7.83;;;2.93;;
19519;SDS011;9904;52.246;20.898;2023-07-24T03:59:21;9.30;;;3.00;;
19519;SDS011;9904;52.246;20.898;2023-07-24T04:01:48;4.30;;;2.93;;
19519;SDS011;9904;52.246;20.898;2023-07-24T04:04:14;13.03;;;3.97;;
19519;SDS011;9904;52.246;20.898;2023-07-24T04:06:41;6.10;;;3.40;;
19519;SDS011;9904;52.246;20.898;2023-07-24T04:09:07;7.57;;;3.37;;
19519;SDS011;9904;52.246;20.898;2023-07-24T04:11:34;6.47;;;3.60;;
19519;SDS011;9904;52.246;20.898;2023-07-24T04:14:04;8.23;;;3.30;;
19519;SDS011;9904;52.246;20.898;2023-07-24T04:16:30;5.07;;;3.20;;
19519;SDS011;9904;52.246;20.898;2023-07-24T04:18:57;8.03;;;3.30;;
19519;SDS011;9904;52.246;20.898;2023-07-24T04:21:25;7.07;;;3.20;;
19519;SDS011;9904;52.246;20.898;2023-07-24T04:23:52;10.37;;;3.20;;
19519;SDS011;9904;52.246;20.898;2023-07-24T04:26:18;5.60;;;2.90;;
19519;SDS011;9904;52.246;20.898;2023-07-24T04:28:45;9.47;;;3.33;;
19519;SDS011;9904;52.246;20.898;2023-07-24T04:31:11;5.77;;;3.13;;
19519;SDS011;9904;52.246;20.898;2023-07-24T04:33:38;7.70;;;3.10;;
19519;SDS011;9904;52.246;20.898;2023-07-24T04:36:05;10.10;;;3.23;;
19519;SDS011;9904;52.246;20.898;2023-07-24T04:38:32;9.53;;;3.30;;
19519;SDS011;9904;52.246;20.898;2023-07-24T04:41:01;6.97;;;3.17;;
19519;SDS011;9904;52.246;20.898;2023-07-24T04:43:28;9.67;;;5.30;;
19519;SDS011;9904;52.246;20.898;2023-07-24T04:45:55;7.27;;;3.00;;
19519;SDS011;9904;52.246;20.898;2023-07-24T04:48:22;8.77;;;3.50;;
19519;SDS011;9904;52.246;20.898;2023-07-24T04:50:54;12.83;;;3.50;;
19519;SDS011;9904;52.246;20.898;2023-07-24T04:53:21;5.70;;;3.00;;
19519;SDS011;9904;52.246;20.898;2023-07-24T04:55:48;10.67;;;3.33;;
19519;SDS011;9904;52.246;20.898;2023-07-24T04:58:15;9.17;;;3.30;;
19519;SDS011;9904;52.246;20.898;2023-07-24T05:00:42;14.80;;;3.37;;
19519;SDS011;9904;52.246;20.898;2023-07-24T05:03:08;5.23;;;2.87;;
19519;SDS011;9904;52.246;20.898;2023-07-24T05:05:37;8.80;;;2.80;;
19519;SDS011;9904;52.246;20.898;2023-07-24T05:08:08;6.47;;;3.30;;
19519;SDS011;9904;52.246;20.898;2023-07-24T05:10:35;5.13;;;2.83;;
19519;SDS011;9904;52.246;20.898;2023-07-24T05:13:02;11.17;;;3.10;;
19519;SDS011;9904;52.246;20.898;2023-07-24T05:15:29;6.57;;;2.90;;
19519;SDS011;9904;52.246;20.898;2023-07-24T05:17:56;6.37;;;3.00;;
19519;SDS011;9904;52.246;20.898;2023-07-24T05:20:22;7.53;;;3.00;;
19519;SDS011;9904;52.246;20.898;2023-07-24T05:22:49;9.33;;;2.93;;
19519;SDS011;9904;52.246;20.898;2023-07-24T05:25:16;6.80;;;2.73;;
19519;SDS011;9904;52.246;20.898;2023-07-24T05:27:43;6.53;;;3.23;;
19519;SDS011;9904;52.246;20.898;2023-07-24T05:30:11;7.30;;;3.17;;
19519;SDS011;9904;52.246;20.898;2023-07-24T05:32:38;8.53;;;3.23;;
19519;SDS011;9904;52.246;20.898;2023-07-24T05:35:04;9.00;;;3.20;;
19519;SDS011;9904;52.246;20.898;2023-07-24T05:37:31;8.47;;;3.40;;
19519;SDS011;9904;52.246;20.898;2023-07-24T05:39:58;12.73;;;3.23;;
19519;SDS011;9904;52.246;20.898;2023-07-24T05:42:26;4.93;;;2.60;;
19519;SDS011;9904;52.246;20.898;2023-07-24T05:44:52;10.33;;;2.93;;
19519;SDS011;9904;52.246;20.898;2023-07-24T05:47:19;7.30;;;3.10;;
19519;SDS011;9904;52.246;20.898;2023-07-24T05:49:45;8.60;;;3.50;;
19519;SDS011;9904;52.246;20.898;2023-07-24T05:52:12;7.87;;;3.80;;
19519;SDS011;9904;52.246;20.898;2023-07-24T05:54:39;10.60;;;3.10;;
19519;SDS011;9904;52.246;20.898;2023-07-24T05:57:06;6.97;;;2.90;;
19519;SDS011;9904;52.246;20.898;2023-07-24T05:59:32;7.10;;;2.97;;
19519;SDS011;9904;52.246;20.898;2023-07-24T06:01:59;6.80;;;3.08;;
19519;SDS011;9904;52.246;20.898;2023-07-24T06:04:26;9.43;;;3.47;;
19519;SDS011;9904;52.246;20.898;2023-07-24T06:06:52;11.63;;;2.95;;
19519;SDS011;9904;52.246;20.898;2023-07-24T06:09:19;4.37;;;2.80;;
19519;SDS011;9904;52.246;20.898;2023-07-24T06:11:47;13.73;;;3.90;;
19519;SDS011;9904;52.246;20.898;2023-07-24T06:14:14;7.87;;;3.23;;
19519;SDS011;9904;52.246;20.898;2023-07-24T06:16:40;7.07;;;2.97;;
19519;SDS011;9904;52.246;20.898;2023-07-24T06:19:07;11.63;;;3.17;;
19519;SDS011;9904;52.246;20.898;2023-07-24T06:21:34;6.33;;;2.80;;
19519;SDS011;9904;52.246;20.898;2023-07-24T06:24:01;10.10;;;3.53;;
19519;SDS011;9904;52.246;20.898;2023-07-24T06:26:27;4.63;;;2.73;;
19519;SDS011;9904;52.246;20.898;2023-07-24T06:28:55;5.77;;;3.00;;
19519;SDS011;9904;52.246;20.898;2023-07-24T06:31:21;9.20;;;3.10;;
19519;SDS011;9904;52.246;20.898;2023-07-24T06:33:48;7.67;;;3.60;;
19519;SDS011;9904;52.246;20.898;2023-07-24T06:36:15;7.17;;;2.90;;
19519;SDS011;9904;52.246;20.898;2023-07-24T06:38:41;6.20;;;3.03;;
19519;SDS011;9904;52.246;20.898;2023-07-24T06:41:08;9.18;;;3.00;;
19519;SDS011;9904;52.246;20.898;2023-07-24T06:43:35;8.80;;;3.23;;
19519;SDS011;9904;52.246;20.898;2023-07-24T06:46:02;7.43;;;3.50;;
19519;SDS011;9904;52.246;20.898;2023-07-24T06:48:28;11.52;;;3.00;;
19519;SDS011;9904;52.246;20.898;2023-07-24T06:50:55;9.90;;;2.90;;
19519;SDS011;9904;52.246;20.898;2023-07-24T06:53:22;6.03;;;2.67;;
19519;SDS011;9904;52.246;20.898;2023-07-24T06:55:48;6.53;;;3.00;;
19519;SDS011;9904;52.246;20.898;2023-07-24T06:58:15;8.57;;;2.90;;
19519;SDS011;9904;52.246;20.898;2023-07-24T07:00:41;7.95;;;3.10;;
19519;SDS011;9904;52.246;20.898;2023-07-24T07:03:08;7.13;;;2.87;;
19519;SDS011;9904;52.246;20.898;2023-07-24T07:05:35;9.18;;;3.15;;
19519;SDS011;9904;52.246;20.898;2023-07-24T07:08:01;11.27;;;3.17;;
19519;SDS011;9904;52.246;20.898;2023-07-24T07:10:28;8.67;;;2.73;;
19519;SDS011;9904;52.246;20.898;2023-07-24T07:12:57;6.03;;;3.03;;
19519;SDS011;9904;52.246;20.898;2023-07-24T07:15:24;6.63;;;3.10;;
19519;SDS011;9904;52.246;20.898;2023-07-24T07:17:51;7.30;;;3.07;;
19519;SDS011;9904;52.246;20.898;2023-07-24T07:20:17;5.72;;;2.72;;
19519;SDS011;9904;52.246;20.898;2023-07-24T07:22:44;6.95;;;3.05;;
19519;SDS011;9904;52.246;20.898;2023-07-24T07:25:11;6.28;;;2.80;;
19519;SDS011;9904;52.246;20.898;2023-07-24T07:27:38;7.77;;;2.90;;
19519;SDS011;9904;52.246;20.898;2023-07-24T07:30:04;7.88;;;2.75;;
19519;SDS011;9904;52.246;20.898;2023-07-24T07:32:32;5.13;;;2.53;;
19519;SDS011;9904;52.246;20.898;2023-07-24T07:34:59;5.82;;;2.83;;
19519;SDS011;9904;52.246;20.898;2023-07-24T07:37:26;4.97;;;2.60;;
19519;SDS011;9904;52.246;20.898;2023-07-24T07:39:53;6.65;;;2.60;;
19519;SDS011;9904;52.246;20.898;2023-07-24T07:42:19;5.22;;;2.65;;
19519;SDS011;9904;52.246;20.898;2023-07-24T07:44:46;6.33;;;2.30;;
19519;SDS011;9904;52.246;20.898;2023-07-24T07:47:13;6.45;;;2.63;;
19519;SDS011;9904;52.246;20.898;2023-07-24T07:49:39;6.97;;;2.28;;
19519;SDS011;9904;52.246;20.898;2023-07-24T07:52:06;5.43;;;2.20;;
19519;SDS011;9904;52.246;20.898;2023-07-24T07:54:33;5.20;;;2.33;;
19519;SDS011;9904;52.246;20.898;2023-07-24T07:57:00;6.90;;;2.47;;
19519;SDS011;9904;52.246;20.898;2023-07-24T07:59:27;6.63;;;2.20;;
19519;SDS011;9904;52.246;20.898;2023-07-24T08:01:54;5.88;;;2.42;;
19519;SDS011;9904;52.246;20.898;2023-07-24T08:04:20;4.77;;;2.57;;
19519;SDS011;9904;52.246;20.898;2023-07-24T08:06:47;9.82;;;2.95;;
19519;SDS011;9904;52.246;20.898;2023-07-24T08:09:13;4.38;;;2.95;;
19519;SDS011;9904;52.246;20.898;2023-07-24T08:11:40;4.80;;;2.67;;
19519;SDS011;9904;52.246;20.898;2023-07-24T08:14:07;5.73;;;2.90;;
19519;SDS011;9904;52.246;20.898;2023-07-24T08:16:33;4.83;;;2.70;;
19519;SDS011;9904;52.246;20.898;2023-07-24T08:19:00;4.27;;;2.40;;
19519;SDS011;9904;52.246;20.898;2023-07-24T08:21:27;5.27;;;2.70;;
19519;SDS011;9904;52.246;20.898;2023-07-24T08:23:54;9.93;;;2.85;;
19519;SDS011;9904;52.246;20.898;2023-07-24T08:26:20;5.57;;;2.72;;
19519;SDS011;9904;52.246;20.898;2023-07-24T08:28:47;5.50;;;2.33;;
19519;SDS011;9904;52.246;20.898;2023-07-24T08:31:14;7.05;;;2.28;;
19519;SDS011;9904;52.246;20.898;2023-07-24T08:33:41;6.00;;;2.78;;
19519;SDS011;9904;52.246;20.898;2023-07-24T08:36:08;6.97;;;2.37;;
19519;SDS011;9904;52.246;20.898;2023-07-24T08:38:35;10.30;;;2.40;;
19519;SDS011;9904;52.246;20.898;2023-07-24T08:43:33;4.28;;;2.15;;
19519;SDS011;9904;52.246;20.898;2023-07-24T08:46:02;5.47;;;2.93;;
19519;SDS011;9904;52.246;20.898;2023-07-24T08:48:33;6.97;;;2.67;;
19519;SDS011;9904;52.246;20.898;2023-07-24T08:51:07;4.78;;;2.60;;
19519;SDS011;9904;52.246;20.898;2023-07-24T08:53:36;5.25;;;2.40;;
19519;SDS011;9904;52.246;20.898;2023-07-24T08:56:08;9.13;;;2.50;;
19519;SDS011;9904;52.246;20.898;2023-07-24T08:58:36;5.40;;;2.35;;
19519;SDS011;9904;52.246;20.898;2023-07-24T09:01:03;4.82;;;2.85;;
19519;SDS011;9904;52.246;20.898;2023-07-24T09:03:30;10.13;;;3.27;;
19519;SDS011;9904;52.246;20.898;2023-07-24T09:05:59;4.77;;;2.43;;
19519;SDS011;9904;52.246;20.898;2023-07-24T09:08:30;4.27;;;2.20;;
19519;SDS011;9904;52.246;20.898;2023-07-24T09:11:01;4.28;;;2.67;;
19519;SDS011;9904;52.246;20.898;2023-07-24T09:13:29;3.28;;;2.17;;
19519;SDS011;9904;52.246;20.898;2023-07-24T09:15:56;6.50;;;2.50;;
19519;SDS011;9904;52.246;20.898;2023-07-24T09:18:23;5.78;;;2.42;;
19519;SDS011;9904;52.246;20.898;2023-07-24T09:20:49;3.83;;;2.20;;
19519;SDS011;9904;52.246;20.898;2023-07-24T09:23:25;5.37;;;2.10;;
19519;SDS011;9904;52.246;20.898;2023-07-24T09:25:54;6.63;;;2.30;;
19519;SDS011;9904;52.246;20.898;2023-07-24T09:28:20;5.17;;;2.30;;
19519;SDS011;9904;52.246;20.898;2023-07-24T09:30:51;3.72;;;2.40;;
19519;SDS011;9904;52.246;20.898;2023-07-24T09:33:19;6.40;;;2.10;;
19519;SDS011;9904;52.246;20.898;2023-07-24T09:35:56;6.28;;;2.47;;
19519;SDS011;9904;52.246;20.898;2023-07-24T09:38:24;3.00;;;2.08;;
19519;SDS011;9904;52.246;20.898;2023-07-24T09:40:52;5.68;;;2.30;;
19519;SDS011;9904;52.246;20.898;2023-07-24T09:43:23;3.92;;;2.20;;
19519;SDS011;9904;52.246;20.898;2023-07-24T09:46:06;4.50;;;2.00;;
19519;SDS011;9904;52.246;20.898;2023-07-24T09:48:37;4.30;;;2.30;;
19519;SDS011;9904;52.246;20.898;2023-07-24T09:51:08;3.25;;;2.28;;
19519;SDS011;9904;52.246;20.898;2023-07-24T09:53:41;4.05;;;2.20;;
19519;SDS011;9904;52.246;20.898;2023-07-24T09:56:10;8.43;;;2.40;;
19519;SDS011;9904;52.246;20.898;2023-07-24T09:58:37;5.63;;;2.20;;
19519;SDS011;9904;52.246;20.898;2023-07-24T10:01:05;2.83;;;2.00;;
19519;SDS011;9904;52.246;20.898;2023-07-24T10:03:34;5.10;;;2.30;;
19519;SDS011;9904;52.246;20.898;2023-07-24T10:06:02;3.90;;;2.13;;
19519;SDS011;9904;52.246;20.898;2023-07-24T10:08:28;3.22;;;2.10;;
19519;SDS011;9904;52.246;20.898;2023-07-24T10:10:55;11.60;;;2.43;;
19519;SDS011;9904;52.246;20.898;2023-07-24T10:13:26;2.83;;;2.00;;
19519;SDS011;9904;52.246;20.898;2023-07-24T10:15:53;3.88;;;2.03;;
19519;SDS011;9904;52.246;20.898;2023-07-24T10:18:25;5.68;;;2.50;;
19519;SDS011;9904;52.246;20.898;2023-07-24T10:21:03;5.63;;;2.53;;
19519;SDS011;9904;52.246;20.898;2023-07-24T10:23:34;6.53;;;2.55;;
19519;SDS011;9904;52.246;20.898;2023-07-24T10:26:03;4.40;;;2.42;;
19519;SDS011;9904;52.246;20.898;2023-07-24T10:28:34;6.03;;;2.28;;
19519;SDS011;9904;52.246;20.898;2023-07-24T10:31:19;9.27;;;2.45;;
19519;SDS011;9904;52.246;20.898;2023-07-24T10:33:46;5.75;;;2.60;;
19519;SDS011;9904;52.246;20.898;2023-07-24T10:36:12;10.77;;;2.80;;
19519;SDS011;9904;52.246;20.898;2023-07-24T10:38:45;7.78;;;2.78;;
19519;SDS011;9904;52.246;20.898;2023-07-24T10:41:13;7.28;;;2.80;;
19519;SDS011;9904;52.246;20.898;2023-07-24T10:43:40;8.70;;;3.00;;
19519;SDS011;9904;52.246;20.898;2023-07-24T10:46:17;5.97;;;2.42;;
19519;SDS011;9904;52.246;20.898;2023-07-24T10:48:46;11.18;;;2.72;;
19519;SDS011;9904;52.246;20.898;2023-07-24T10:51:14;6.45;;;2.63;;
19519;SDS011;9904;52.246;20.898;2023-07-24T10:53:44;9.45;;;2.30;;
19519;SDS011;9904;52.246;20.898;2023-07-24T10:56:13;9.25;;;3.08;;
19519;SDS011;9904;52.246;20.898;2023-07-24T10:58:39;7.07;;;3.35;;
19519;SDS011;9904;52.246;20.898;2023-07-24T11:01:07;6.32;;;2.60;;
19519;SDS011;9904;52.246;20.898;2023-07-24T11:03:36;7.78;;;2.75;;
19519;SDS011;9904;52.246;20.898;2023-07-24T11:06:03;6.45;;;2.70;;
19519;SDS011;9904;52.246;20.898;2023-07-24T11:08:30;7.03;;;2.78;;
19519;SDS011;9904;52.246;20.898;2023-07-24T11:10:57;6.88;;;3.00;;
19519;SDS011;9904;52.246;20.898;2023-07-24T11:13:27;5.18;;;2.95;;
19519;SDS011;9904;52.246;20.898;2023-07-24T11:15:54;4.97;;;2.90;;
19519;SDS011;9904;52.246;20.898;2023-07-24T11:18:21;11.73;;;2.85;;
19519;SDS011;9904;52.246;20.898;2023-07-24T11:20:57;6.05;;;2.85;;
19519;SDS011;9904;52.246;20.898;2023-07-24T11:23:24;7.65;;;3.55;;
19519;SDS011;9904;52.246;20.898;2023-07-24T11:25:54;6.05;;;3.03;;
19519;SDS011;9904;52.246;20.898;2023-07-24T11:28:20;6.87;;;2.97;;
19519;SDS011;9904;52.246;20.898;2023-07-24T11:30:47;5.32;;;2.50;;
19519;SDS011;9904;52.246;20.898;2023-07-24T11:33:14;4.93;;;2.75;;
19519;SDS011;9904;52.246;20.898;2023-07-24T11:35:45;12.30;;;3.22;;
19519;SDS011;9904;52.246;20.898;2023-07-24T11:38:12;14.13;;;3.25;;
19519;SDS011;9904;52.246;20.898;2023-07-24T11:40:42;7.90;;;2.85;;
19519;SDS011;9904;52.246;20.898;2023-07-24T11:43:19;5.35;;;3.10;;
19519;SDS011;9904;52.246;20.898;2023-07-24T11:45:49;5.88;;;3.20;;
19519;SDS011;9904;52.246;20.898;2023-07-24T11:48:20;6.20;;;2.93;;
19519;SDS011;9904;52.246;20.898;2023-07-24T11:50:48;8.80;;;3.78;;
19519;SDS011;9904;52.246;20.898;2023-07-24T11:53:22;7.63;;;2.90;;
19519;SDS011;9904;52.246;20.898;2023-07-24T11:55:57;6.07;;;3.03;;
19519;SDS011;9904;52.246;20.898;2023-07-24T11:58:25;9.82;;;3.10;;
19519;SDS011;9904;52.246;20.898;2023-07-24T12:00:53;7.70;;;3.05;;
19519;SDS011;9904;52.246;20.898;2023-07-24T12:03:21;7.80;;;3.13;;
19519;SDS011;9904;52.246;20.898;2023-07-24T12:05:48;11.43;;;2.97;;
19519;SDS011;9904;52.246;20.898;2023-07-24T12:08:16;5.00;;;2.88;;
19519;SDS011;9904;52.246;20.898;2023-07-24T12:10:45;7.40;;;2.90;;
19519;SDS011;9904;52.246;20.898;2023-07-24T12:13:12;6.65;;;3.53;;
19519;SDS011;9904;52.246;20.898;2023-07-24T12:15:39;11.70;;;3.00;;
19519;SDS011;9904;52.246;20.898;2023-07-24T12:18:06;5.55;;;3.20;;
19519;SDS011;9904;52.246;20.898;2023-07-24T12:20:33;11.32;;;3.42;;
19519;SDS011;9904;52.246;20.898;2023-07-24T12:23:01;10.07;;;3.00;;
19519;SDS011;9904;52.246;20.898;2023-07-24T12:25:28;5.72;;;3.10;;
19519;SDS011;9904;52.246;20.898;2023-07-24T12:27:54;7.75;;;3.00;;
19519;SDS011;9904;52.246;20.898;2023-07-24T12:30:21;6.10;;;2.97;;
19519;SDS011;9904;52.246;20.898;2023-07-24T12:32:48;5.70;;;3.17;;
19519;SDS011;9904;52.246;20.898;2023-07-24T12:35:15;6.25;;;3.00;;
19519;SDS011;9904;52.246;20.898;2023-07-24T12:37:43;18.40;;;3.67;;
19519;SDS011;9904;52.246;20.898;2023-07-24T12:40:13;12.82;;;3.35;;
19519;SDS011;9904;52.246;20.898;2023-07-24T12:42:40;10.23;;;3.33;;
19519;SDS011;9904;52.246;20.898;2023-07-24T12:45:07;9.02;;;3.28;;
19519;SDS011;9904;52.246;20.898;2023-07-24T12:47:33;8.40;;;2.85;;
19519;SDS011;9904;52.246;20.898;2023-07-24T12:50:01;4.85;;;2.83;;
19519;SDS011;9904;52.246;20.898;2023-07-24T12:52:33;6.30;;;2.65;;
19519;SDS011;9904;52.246;20.898;2023-07-24T12:54:59;6.30;;;2.85;;
19519;SDS011;9904;52.246;20.898;2023-07-24T12:57:28;8.05;;;3.10;;
19519;SDS011;9904;52.246;20.898;2023-07-24T12:59:54;4.57;;;2.70;;
19519;SDS011;9904;52.246;20.898;2023-07-24T13:02:21;9.30;;;3.05;;
19519;SDS011;9904;52.246;20.898;2023-07-24T13:04:48;5.47;;;3.58;;
19519;SDS011;9904;52.246;20.898;2023-07-24T13:07:14;6.35;;;3.08;;
19519;SDS011;9904;52.246;20.898;2023-07-24T13:09:41;7.57;;;3.28;;
19519;SDS011;9904;52.246;20.898;2023-07-24T13:12:08;8.27;;;3.15;;
19519;SDS011;9904;52.246;20.898;2023-07-24T13:14:35;8.88;;;2.88;;
19519;SDS011;9904;52.246;20.898;2023-07-24T13:17:04;9.35;;;3.00;;
19519;SDS011;9904;52.246;20.898;2023-07-24T13:19:31;8.30;;;2.97;;
19519;SDS011;9904;52.246;20.898;2023-07-24T13:21:58;10.88;;;3.30;;
19519;SDS011;9904;52.246;20.898;2023-07-24T13:24:25;6.20;;;3.47;;
19519;SDS011;9904;52.246;20.898;2023-07-24T13:26:52;11.40;;;3.30;;
19519;SDS011;9904;52.246;20.898;2023-07-24T13:29:19;11.38;;;3.40;;
19519;SDS011;9904;52.246;20.898;2023-07-24T13:31:49;13.70;;;3.85;;
19519;SDS011;9904;52.246;20.898;2023-07-24T13:34:17;7.00;;;3.53;;
19519;SDS011;9904;52.246;20.898;2023-07-24T13:36:46;6.32;;;3.28;;
19519;SDS011;9904;52.246;20.898;2023-07-24T13:39:15;12.02;;;4.03;;
19519;SDS011;9904;52.246;20.898;2023-07-24T13:41:43;6.97;;;3.80;;
19519;SDS011;9904;52.246;20.898;2023-07-24T13:44:09;6.78;;;3.67;;
19519;SDS011;9904;52.246;20.898;2023-07-24T13:46:36;8.68;;;3.67;;
19519;SDS011;9904;52.246;20.898;2023-07-24T13:49:05;8.25;;;2.95;;
19519;SDS011;9904;52.246;20.898;2023-07-24T13:51:33;6.75;;;3.28;;
19519;SDS011;9904;52.246;20.898;2023-07-24T13:53:59;5.55;;;2.97;;
19519;SDS011;9904;52.246;20.898;2023-07-24T13:56:28;7.87;;;3.20;;
19519;SDS011;9904;52.246;20.898;2023-07-24T13:58:57;6.95;;;3.17;;
19519;SDS011;9904;52.246;20.898;2023-07-24T14:01:24;18.67;;;2.95;;
19519;SDS011;9904;52.246;20.898;2023-07-24T14:03:51;7.05;;;3.20;;
19519;SDS011;9904;52.246;20.898;2023-07-24T14:06:18;5.90;;;2.90;;
19519;SDS011;9904;52.246;20.898;2023-07-24T14:08:45;7.80;;;4.05;;
19519;SDS011;9904;52.246;20.898;2023-07-24T14:11:11;8.20;;;2.92;;
19519;SDS011;9904;52.246;20.898;2023-07-24T14:13:38;6.07;;;3.05;;
19519;SDS011;9904;52.246;20.898;2023-07-24T14:16:05;8.90;;;3.20;;
19519;SDS011;9904;52.246;20.898;2023-07-24T14:18:32;5.60;;;3.13;;
19519;SDS011;9904;52.246;20.898;2023-07-24T14:20:59;6.97;;;3.30;;
19519;SDS011;9904;52.246;20.898;2023-07-24T14:23:26;4.35;;;2.72;;
19519;SDS011;9904;52.246;20.898;2023-07-24T14:25:53;4.95;;;3.15;;
19519;SDS011;9904;52.246;20.898;2023-07-24T14:28:19;7.43;;;3.85;;
19519;SDS011;9904;52.246;20.898;2023-07-24T14:30:47;6.60;;;3.33;;
19519;SDS011;9904;52.246;20.898;2023-07-24T14:33:13;5.47;;;2.80;;
19519;SDS011;9904;52.246;20.898;2023-07-24T14:35:40;8.88;;;3.42;;
19519;SDS011;9904;52.246;20.898;2023-07-24T14:38:06;6.35;;;3.25;;
19519;SDS011;9904;52.246;20.898;2023-07-24T14:40:33;8.18;;;3.17;;
19519;SDS011;9904;52.246;20.898;2023-07-24T14:43:00;7.05;;;3.10;;
19519;SDS011;9904;52.246;20.898;2023-07-24T14:45:29;5.10;;;3.30;;
19519;SDS011;9904;52.246;20.898;2023-07-24T14:47:56;9.32;;;3.55;;
19519;SDS011;9904;52.246;20.898;2023-07-24T14:50:24;5.05;;;3.08;;
19519;SDS011;9904;52.246;20.898;2023-07-24T14:52:51;10.18;;;3.55;;
19519;SDS011;9904;52.246;20.898;2023-07-24T14:55:17;7.43;;;3.33;;